Time;durP1;ratioP1;P1;durP2;ratioP2;P2;SDS_P1;SDS_P2;PMS_P1;PMS_P2;Temp;Humidity;BMP_temperature;BMP_pressure;BME280_temperature;BME280_humidity;BME280_pressure;Samples;Min_cycle;Max_cycle;Signal;HPM_P1;HPM_P2
2021/10/19 04:17:16;;;;;;;0.75;0.75;;;;;;;5.40;100.00;99559.59;5110154;23;20457;-74
2021/10/19 04:19:42;;;;;;;1.80;1.70;;;;;;;5.48;100.00;99561.44;4937577;29;20040;-74
2021/10/19 04:22:07;;;;;;;0.95;0.95;;;;;;;5.46;100.00;99569.09;4937305;29;20031;-74
2021/10/19 04:24:32;;;;;;;1.67;1.58;;;;;;;5.50;100.00;99572.56;4937528;29;20131;-74
2021/10/19 04:26:57;;;;;;;1.13;1.13;;;;;;;5.48;100.00;99576.84;4937129;29;20115;-74
2021/10/19 04:29:23;;;;;;;1.25;1.25;;;;;;;5.55;100.00;99578.66;4963988;23;20039;-72
2021/10/19 04:31:48;;;;;;;0.60;0.60;;;;;;;5.49;100.00;99570.84;4956193;28;20464;-72
2021/10/19 04:34:14;;;;;;;1.65;1.55;;;;;;;5.52;100.00;99574.34;4956478;28;20023;-70
2021/10/19 04:36:39;;;;;;;1.00;1.00;;;;;;;5.59;100.00;99572.72;4956805;28;20078;-70
2021/10/19 04:39:04;;;;;;;4.15;1.38;;;;;;;5.51;100.00;99564.03;4956393;28;20035;-70
2021/10/19 04:41:29;;;;;;;1.20;1.20;;;;;;;5.48;100.00;99558.84;4956105;28;20074;-70
2021/10/19 04:43:55;;;;;;;1.27;1.27;;;;;;;5.57;100.00;99557.28;4967464;28;20122;-70
2021/10/19 04:46:20;;;;;;;1.63;1.60;;;;;;;5.52;100.00;99552.91;4948171;28;20074;-70
2021/10/19 04:48:45;;;;;;;0.90;0.90;;;;;;;5.55;100.00;99552.94;4956235;29;20088;-70
2021/10/19 04:51:11;;;;;;;1.75;1.65;;;;;;;5.56;100.00;99549.53;4955966;29;20023;-69
2021/10/19 04:53:37;;;;;;;2.25;2.15;;;;;;;5.55;100.00;99542.66;4956219;29;20042;-69
2021/10/19 04:56:03;;;;;;;0.82;0.82;;;;;;;5.62;100.00;99539.34;4955769;29;20090;-69
2021/10/19 04:58:29;;;;;;;0.50;0.50;;;;;;;5.64;100.00;99542.81;4956028;29;20031;-69
2021/10/19 05:00:55;;;;;;;1.40;1.40;;;;;;;5.66;100.00;99542.00;4955942;29;20384;-69
2021/10/19 05:03:20;;;;;;;1.25;1.25;;;;;;;5.70;100.00;99542.88;4955653;29;20027;-69
2021/10/19 05:05:46;;;;;;;1.83;1.75;;;;;;;5.58;100.00;99543.59;4955955;29;20027;-69
2021/10/19 05:08:11;;;;;;;1.48;1.48;;;;;;;5.61;100.00;99547.91;4954983;28;20031;-69
2021/10/19 05:10:36;;;;;;;1.42;1.42;;;;;;;5.60;100.00;99552.16;4955634;29;20109;-69
2021/10/19 05:13:02;;;;;;;2.75;2.50;;;;;;;5.59;100.00;99554.72;4944848;29;20421;-69
2021/10/19 05:15:28;;;;;;;1.13;1.13;;;;;;;5.60;100.00;99553.88;4952137;29;20127;-69
2021/10/19 05:17:53;;;;;;;1.65;1.30;;;;;;;5.65;100.00;99540.25;4955904;29;20464;-72
2021/10/19 05:20:19;;;;;;;3.28;2.97;;;;;;;5.72;100.00;99548.06;4955527;29;20396;-69
2021/10/19 05:22:44;;;;;;;0.93;0.93;;;;;;;5.77;100.00;99547.28;4955644;29;20062;-69
2021/10/19 05:25:11;;;;;;;1.48;1.38;;;;;;;5.74;100.00;99549.78;4955837;29;20031;-69
2021/10/19 05:27:37;;;;;;;0.73;0.73;;;;;;;5.77;100.00;99555.00;4955271;29;20035;-69
2021/10/19 05:30:03;;;;;;;1.15;1.15;;;;;;;5.78;100.00;99556.72;4955301;29;20035;-69
2021/10/19 05:32:28;;;;;;;1.10;1.10;;;;;;;5.82;100.00;99557.63;4955278;29;20054;-69
2021/10/19 05:34:54;;;;;;;1.90;1.80;;;;;;;5.81;100.00;99556.75;4955410;29;20059;-69
2021/10/19 05:37:19;;;;;;;1.40;1.23;;;;;;;5.79;100.00;99558.44;4955293;29;20073;-69
2021/10/19 05:39:45;;;;;;;0.80;0.80;;;;;;;5.80;100.00;99554.16;4955401;29;20110;-69
2021/10/19 05:42:12;;;;;;;1.33;1.27;;;;;;;5.86;100.00;99562.84;4949432;29;20524;-71
2021/10/19 05:44:38;;;;;;;1.13;1.13;;;;;;;5.88;100.00;99553.41;4943914;29;20039;-71
2021/10/19 05:47:03;;;;;;;1.67;1.58;;;;;;;5.86;100.00;99555.13;4935871;29;20032;-71
2021/10/19 05:49:28;;;;;;;0.73;0.73;;;;;;;5.91;100.00;99545.78;4935832;29;20023;-71
2021/10/19 05:51:55;;;;;;;3.17;2.10;;;;;;;5.91;100.00;99547.47;4935715;29;20028;-69
2021/10/19 05:54:21;;;;;;;0.63;0.63;;;;;;;6.01;100.00;99553.63;4935798;29;20401;-69
2021/10/19 05:56:46;;;;;;;1.65;1.58;;;;;;;5.97;100.00;99557.00;4935664;29;20103;-71
2021/10/19 05:59:11;;;;;;;1.27;1.27;;;;;;;6.02;100.00;99557.91;4935844;29;20132;-71
2021/10/19 06:01:37;;;;;;;1.50;1.42;;;;;;;6.07;100.00;99551.13;4935464;29;20512;-71
2021/10/19 06:04:02;;;;;;;1.70;1.60;;;;;;;6.14;100.00;99560.63;4935565;29;20397;-71
2021/10/19 06:06:27;;;;;;;1.15;1.15;;;;;;;6.10;100.00;99553.75;4934399;29;20028;-71
2021/10/19 06:08:53;;;;;;;1.77;1.60;;;;;;;6.10;100.00;99561.47;4934468;29;20031;-71
2021/10/19 06:11:19;;;;;;;1.92;1.77;;;;;;;6.16;100.00;99564.09;4935179;29;20035;-71
2021/10/19 06:13:44;;;;;;;1.63;1.45;;;;;;;6.17;100.00;99568.41;4943167;29;20063;-71
2021/10/19 06:16:10;;;;;;;1.25;1.23;;;;;;;6.21;100.00;99562.44;4935463;29;20480;-71
2021/10/19 06:18:35;;;;;;;1.48;1.40;;;;;;;6.26;100.00;99560.78;4935289;29;20445;-69
2021/10/19 06:21:01;;;;;;;1.98;1.40;;;;;;;6.35;100.00;99555.75;4935360;29;20054;-70
2021/10/19 06:23:27;;;;;;;1.98;1.88;;;;;;;6.41;100.00;99560.97;4935553;29;20162;-71
2021/10/19 06:25:52;;;;;;;1.15;1.15;;;;;;;6.54;100.00;99561.13;4935268;29;20457;-71
2021/10/19 06:28:18;;;;;;;0.90;0.90;;;;;;;6.50;100.00;99564.50;4935367;29;20035;-70
2021/10/19 06:30:43;;;;;;;1.08;1.08;;;;;;;6.50;100.00;99559.34;4935061;29;20051;-70
2021/10/19 06:33:09;;;;;;;0.93;0.93;;;;;;;6.50;100.00;99564.50;4935194;29;20020;-70
2021/10/19 06:35:34;;;;;;;0.90;0.90;;;;;;;6.51;100.00;99571.38;4935100;29;20023;-69
2021/10/19 06:37:59;;;;;;;3.85;2.38;;;;;;;6.56;100.00;99565.41;4935168;29;20039;-69
2021/10/19 06:40:24;;;;;;;0.77;0.77;;;;;;;6.61;100.00;99568.91;4934781;29;20028;-69
2021/10/19 06:42:50;;;;;;;3.58;2.38;;;;;;;6.67;100.00;99573.25;4937527;29;20050;-70
2021/10/19 06:45:15;;;;;;;1.50;1.45;;;;;;;6.69;100.00;99567.28;4940205;29;20027;-71
2021/10/19 06:47:40;;;;;;;0.73;0.73;;;;;;;6.70;99.79;99570.72;4935017;29;20031;-70
2021/10/19 06:50:07;;;;;;;3.67;3.38;;;;;;;6.69;100.00;99563.84;4934919;29;20086;-71
2021/10/19 06:52:36;;;;;;;3.53;2.25;;;;;;;6.70;100.00;99568.16;4934798;29;20024;-69
2021/10/19 06:55:02;;;;;;;2.38;2.22;;;;;;;6.72;100.00;99571.63;4934730;29;20039;-69
2021/10/19 06:57:27;;;;;;;1.17;1.17;;;;;;;6.84;100.00;99565.72;4934914;29;20039;-69
2021/10/19 06:59:53;;;;;;;0.85;0.85;;;;;;;6.85;100.00;99565.72;4934971;29;20393;-70
2021/10/19 07:02:19;;;;;;;2.03;1.88;;;;;;;6.94;99.80;99568.38;4934571;29;20059;-70
2021/10/19 07:04:44;;;;;;;0.88;0.88;;;;;;;6.93;100.00;99566.66;4934957;29;20028;-69
2021/10/19 07:07:09;;;;;;;1.30;1.27;;;;;;;7.04;99.85;99568.47;4934805;29;20115;-70
2021/10/19 07:09:35;;;;;;;1.15;1.15;;;;;;;7.12;99.98;99567.69;4935073;29;20102;-70
2021/10/19 07:12:03;;;;;;;2.28;0.60;;;;;;;7.16;99.66;99568.59;4934697;29;20429;-70
2021/10/19 07:14:28;;;;;;;0.77;0.77;;;;;;;7.19;99.73;99568.59;4942573;29;20035;-71
2021/10/19 07:16:54;;;;;;;1.00;1.00;;;;;;;7.15;99.47;99574.56;4934650;29;20032;-71
2021/10/19 07:19:20;;;;;;;0.88;0.88;;;;;;;7.37;99.40;99584.22;4934733;29;20102;-71
2021/10/19 07:21:45;;;;;;;1.33;1.15;;;;;;;7.48;98.58;99580.00;4934379;29;20028;-71
2021/10/19 07:24:10;;;;;;;0.88;0.88;;;;;;;7.60;98.08;99580.97;4934568;29;20024;-71
2021/10/19 07:26:36;;;;;;;2.55;2.45;;;;;;;7.67;97.32;99587.88;4934594;29;20503;-71
2021/10/19 07:29:01;;;;;;;2.67;1.00;;;;;;;7.68;97.21;99582.69;4933261;29;20270;-72
2021/10/19 07:31:27;;;;;;;1.42;1.42;;;;;;;7.72;97.04;99587.03;4936316;29;20485;-72
2021/10/19 07:33:52;;;;;;;1.80;1.70;;;;;;;7.77;97.05;99583.63;4938397;29;20469;-71
2021/10/19 07:36:17;;;;;;;2.45;2.35;;;;;;;7.89;96.91;99589.75;4937184;29;20106;-71
2021/10/19 07:38:44;;;;;;;2.30;2.15;;;;;;;7.87;97.75;99580.25;4938067;29;20032;-70
2021/10/19 07:41:09;;;;;;;4.18;1.60;;;;;;;7.96;97.83;99588.03;4938145;29;20393;-69
2021/10/19 07:43:35;;;;;;;1.75;1.65;;;;;;;7.84;98.44;99591.44;4946550;29;20030;-71
2021/10/19 07:46:00;;;;;;;1.20;1.20;;;;;;;8.01;98.76;99586.34;4957557;29;20365;-70
2021/10/19 07:48:25;;;;;;;0.80;0.80;;;;;;;7.90;98.96;99582.84;4957417;29;20093;-70
2021/10/19 07:50:51;;;;;;;0.82;0.82;;;;;;;8.05;98.66;99589.81;4957270;29;20577;-71
2021/10/19 07:53:17;;;;;;;1.40;1.38;;;;;;;7.96;99.14;99596.66;4957007;29;20034;-70
2021/10/19 07:55:43;;;;;;;2.00;1.90;;;;;;;8.05;99.40;99592.41;4957554;29;20497;-71
2021/10/19 07:58:09;;;;;;;1.00;1.00;;;;;;;8.09;99.44;99592.44;4957215;29;20449;-71
2021/10/19 08:00:35;;;;;;;1.33;1.30;;;;;;;8.15;99.31;99601.91;4957240;29;20074;-71
2021/10/19 08:03:00;;;;;;;2.50;2.30;;;;;;;8.40;98.95;99603.78;4956755;29;20073;-70
2021/10/19 08:05:26;;;;;;;1.98;1.42;;;;;;;8.53;98.42;99601.25;4956927;29;20065;-70
2021/10/19 08:08:04;;;;;;;1.08;1.08;;;;;;;8.86;97.27;99606.50;4956809;29;20023;-70
2021/10/19 08:10:29;;;;;;;1.40;1.40;;;;;;;8.88;95.60;99617.72;4957014;29;20233;-70
2021/10/19 08:12:54;;;;;;;2.05;1.90;;;;;;;9.02;95.09;99616.00;4947182;29;20024;-70
2021/10/19 08:15:20;;;;;;;1.15;1.15;;;;;;;9.22;93.50;99615.19;4951999;29;20027;-70
2021/10/19 08:17:46;;;;;;;1.25;1.23;;;;;;;9.49;94.04;99622.09;4957118;29;20055;-70
2021/10/19 08:20:13;;;;;;;0.50;0.50;;;;;;;9.56;92.97;99617.78;4956927;29;20046;-70
2021/10/19 08:22:39;;;;;;;1.60;1.50;;;;;;;9.56;93.11;99625.53;4956489;29;20031;-70
2021/10/19 08:25:07;;;;;;;1.70;1.60;;;;;;;9.41;93.38;99608.28;4956883;29;20073;-70
2021/10/19 08:27:34;;;;;;;0.65;0.65;;;;;;;9.18;94.49;99591.03;4955425;29;20026;-70
2021/10/19 08:29:59;;;;;;;1.08;1.08;;;;;;;9.29;94.92;99604.00;4956290;29;20058;-70
2021/10/19 08:32:25;;;;;;;1.00;1.00;;;;;;;9.47;94.99;99609.16;4956705;29;20073;-70
2021/10/19 08:34:50;;;;;;;1.48;1.45;;;;;;;9.61;93.31;99621.22;4956414;29;20023;-72
2021/10/19 08:37:16;;;;;;;0.80;0.80;;;;;;;9.46;93.65;99627.25;4955107;29;20038;-72
2021/10/19 08:39:41;;;;;;;0.68;0.68;;;;;;;9.61;93.57;99621.22;4956434;29;20031;-70
2021/10/19 08:42:07;;;;;;;2.13;1.90;;;;;;;9.56;93.24;99623.81;4948697;29;20054;-70
2021/10/19 08:44:32;;;;;;;1.65;1.55;;;;;;;9.63;94.02;99616.94;4948020;29;20050;-70
2021/10/19 08:46:57;;;;;;;2.63;2.25;;;;;;;9.87;94.00;99614.31;4956287;29;20062;-70
2021/10/19 08:49:23;;;;;;;1.52;1.42;;;;;;;9.94;95.03;99626.34;4956165;29;20030;-72
2021/10/19 08:51:48;;;;;;;1.55;1.48;;;;;;;10.13;92.84;99626.31;4955859;29;20058;-72
2021/10/19 08:54:14;;;;;;;1.95;1.85;;;;;;;10.03;91.87;99631.53;4956120;29;20027;-71
2021/10/19 08:56:40;;;;;;;0.88;0.88;;;;;;;10.13;91.75;99623.75;4970954;28;20532;-72
2021/10/19 08:59:06;;;;;;;0.80;0.80;;;;;;;10.22;91.18;99644.44;4955945;29;20062;-72
2021/10/19 09:01:36;;;;;;;0.70;0.70;;;;;;;10.21;91.33;99635.81;4956078;29;20457;-72
2021/10/19 09:04:10;;;;;;;1.80;1.70;;;;;;;10.24;91.83;99640.13;4956197;29;20106;-72
2021/10/19 09:06:37;;;;;;;1.00;1.00;;;;;;;10.28;91.30;99650.47;4955812;29;20055;-71
2021/10/19 09:09:05;;;;;;;1.80;1.52;;;;;;;10.11;92.23;99638.44;4955990;29;20297;-71
2021/10/19 09:11:37;;;;;;;0.60;0.60;;;;;;;10.00;92.44;99631.50;4949083;29;20027;-71
2021/10/19 09:14:02;;;;;;;1.65;1.55;;;;;;;9.99;92.85;99637.56;4944754;29;20035;-70
2021/10/19 09:16:39;;;;;;;0.80;0.80;;;;;;;10.15;92.48;99634.94;4936628;29;20090;-70
2021/10/19 09:19:05;;;;;;;1.52;1.45;;;;;;;9.97;92.65;99631.53;4936944;29;20031;-70
2021/10/19 09:21:31;;;;;;;1.30;1.27;;;;;;;9.93;93.93;99628.97;4936209;29;20448;-70
2021/10/19 09:24:15;;;;;;;1.30;1.25;;;;;;;9.87;93.87;99632.44;4936469;29;20039;-70
2021/10/19 09:26:50;;;;;;;0.85;0.85;;;;;;;9.91;93.92;99625.50;4936410;29;20114;-72
2021/10/19 09:29:15;;;;;;;4.85;3.17;;;;;;;9.95;95.01;99635.84;4936101;29;20042;-72
2021/10/19 09:31:40;;;;;;;7.00;3.17;;;;;;;10.03;95.31;99635.84;4936081;29;20028;-72
2021/10/19 09:34:11;;;;;;;7.88;5.75;;;;;;;10.03;95.98;99636.69;4936244;29;20051;-72
2021/10/19 09:36:36;;;;;;;7.85;5.32;;;;;;;10.10;97.10;99644.44;4936036;29;20040;-72
2021/10/19 09:39:01;;;;;;;1.73;1.63;;;;;;;10.20;95.63;99649.63;4936059;29;20045;-71
2021/10/19 09:41:27;;;;;;;3.13;1.67;;;;;;;10.32;96.52;99642.72;4936317;29;20032;-71
2021/10/19 09:43:53;;;;;;;1.30;1.27;;;;;;;10.36;96.17;99644.44;4938943;29;20023;-70
2021/10/19 09:46:23;;;;;;;2.08;1.98;;;;;;;10.40;96.96;99628.88;4955327;29;20078;-70
2021/10/19 09:48:50;;;;;;;0.43;0.43;;;;;;;10.75;96.27;99622.66;4954957;29;20119;-70
2021/10/19 09:51:16;;;;;;;1.80;1.60;;;;;;;11.11;95.76;99620.72;4954964;28;20027;-70
2021/10/19 09:53:42;;;;;;;1.40;1.20;;;;;;;11.21;94.00;99617.19;4954497;28;20047;-70
2021/10/19 09:56:09;;;;;;;0.70;0.70;;;;;;;11.23;94.03;99615.47;4954914;29;20366;-71
2021/10/19 09:58:35;;;;;;;1.48;1.42;;;;;;;11.18;93.22;99606.84;4954728;29;20031;-71
2021/10/19 10:01:03;;;;;;;1.38;1.27;;;;;;;11.11;92.51;99607.75;4953344;29;20031;-71
2021/10/19 10:03:29;;;;;;;0.65;0.50;;;;;;;11.12;92.45;99612.94;4954685;29;20110;-71
2021/10/19 10:05:55;;;;;;;1.98;1.85;;;;;;;11.03;93.47;99603.50;4951094;29;20256;-71
2021/10/19 10:08:24;;;;;;;1.63;1.52;;;;;;;11.17;94.26;99599.91;4941023;29;20456;-71
2021/10/19 10:10:57;;;;;;;3.13;1.00;;;;;;;11.56;90.23;99612.59;4936080;29;20024;-71
2021/10/19 10:13:23;;;;;;;1.27;0.80;;;;;;;11.93;89.57;99621.81;4942047;29;20118;-71
2021/10/19 10:15:49;;;;;;;0.52;0.52;;;;;;;12.22;87.63;99624.09;4936340;29;20429;-71
2021/10/19 10:18:14;;;;;;;1.00;1.00;;;;;;;12.47;85.85;99616.88;4935437;29;20035;-70
2021/10/19 10:20:46;;;;;;;0.50;0.47;;;;;;;12.74;84.37;99605.28;4935011;29;20027;-71
2021/10/19 10:23:25;;;;;;;0.40;0.40;;;;;;;12.92;83.60;99605.03;4935239;29;20028;-71
2021/10/19 10:25:57;;;;;;;2.63;2.40;;;;;;;13.03;83.98;99600.53;4933883;29;20036;-72
2021/10/19 10:28:28;;;;;;;1.85;1.73;;;;;;;13.19;83.28;99584.69;4935334;29;20031;-71
2021/10/19 10:30:56;;;;;;;0.75;0.75;;;;;;;13.12;82.86;99581.31;4935362;29;20028;-71
2021/10/19 10:33:36;;;;;;;1.50;1.40;;;;;;;13.02;84.04;99579.75;4934971;29;20489;-71
2021/10/19 10:36:08;;;;;;;0.50;0.50;;;;;;;13.18;82.79;99580.38;4934776;29;20055;-71
2021/10/19 10:38:35;;;;;;;0.40;0.40;;;;;;;13.01;82.88;99583.25;4934979;29;20031;-71
2021/10/19 10:41:14;;;;;;;0.60;0.60;;;;;;;13.13;83.25;99573.47;4934845;29;20028;-72
2021/10/19 10:43:39;;;;;;;0.75;0.75;;;;;;;13.27;81.09;99567.25;4942719;29;20030;-72
2021/10/19 10:46:19;;;;;;;0.30;0.30;;;;;;;13.16;83.43;99561.31;4935028;29;20035;-72
2021/10/19 10:48:44;;;;;;;0.52;0.52;;;;;;;13.43;80.56;99555.69;4934597;29;20507;-71
2021/10/19 10:51:11;;;;;;;0.75;0.68;;;;;;;13.34;82.45;99558.44;4934659;29;20036;-72
2021/10/19 10:53:40;;;;;;;1.00;1.00;;;;;;;13.22;81.97;99556.91;4934705;29;20031;-71
2021/10/19 10:56:07;;;;;;;0.40;0.40;;;;;;;13.32;80.77;99555.00;4934812;29;20087;-71
2021/10/19 10:58:41;;;;;;;0.32;0.32;;;;;;;13.29;80.52;99557.66;4934635;29;20032;-71
2021/10/19 11:01:16;;;;;;;0.68;0.68;;;;;;;13.35;79.70;99557.56;4934663;29;20039;-72
2021/10/19 11:03:46;;;;;;;1.67;1.50;;;;;;;13.33;80.48;99559.31;4934701;29;20027;-72
2021/10/19 11:06:15;;;;;;;0.63;0.63;;;;;;;13.32;79.94;99548.06;4934187;29;20055;-71
2021/10/19 11:08:40;;;;;;;0.52;0.45;;;;;;;13.35;79.67;99544.56;4934810;29;20504;-71
2021/10/19 11:11:10;;;;;;;0.20;0.20;;;;;;;13.51;80.03;99550.34;4934538;29;20044;-71
2021/10/19 11:13:50;;;;;;;;;;;;;;;13.67;78.88;99530.09;4935568;29;20038;-71
2021/10/19 11:16:18;;;;;;;0.30;0.30;;;;;;;13.64;80.28;99528.44;4953859;29;19914;-72
2021/10/19 11:18:43;;;;;;;0.40;0.40;;;;;;;13.92;78.61;99533.94;4954041;29;20424;-71
2021/10/19 11:21:09;;;;;;;0.52;0.45;;;;;;;14.00;78.97;99511.22;4953493;29;20019;-71
2021/10/19 11:23:41;;;;;;;0.50;0.50;;;;;;;14.08;78.32;99509.31;4953672;29;20086;-71
2021/10/19 11:26:11;;;;;;;0.52;0.52;;;;;;;14.04;78.69;99518.09;4953527;29;20440;-71
2021/10/19 11:28:37;;;;;;;;;;;;;;;14.22;77.94;99510.78;4954441;29;20035;-71
2021/10/19 11:31:04;;;;;;;0.50;0.45;;;;;;;14.09;78.47;99502.34;4953276;29;19918;-71
2021/10/19 11:33:38;;;;;;;0.40;0.40;;;;;;;14.42;76.49;99503.41;4953571;29;20369;-71
2021/10/19 11:36:05;;;;;;;0.20;0.20;;;;;;;14.37;74.40;99495.69;4953710;29;20035;-71
2021/10/19 11:38:30;;;;;;;0.22;0.22;;;;;;;14.42;74.44;99498.19;4953572;29;20082;-71
2021/10/19 11:41:10;;;;;;;0.50;0.50;;;;;;;14.47;74.16;99479.84;4951634;29;20027;-71
2021/10/19 11:44:04;;;;;;;0.20;0.20;;;;;;;14.55;75.05;99484.03;4942881;29;20116;-72
2021/10/19 11:46:33;;;;;;;0.30;0.30;;;;;;;14.72;74.66;99465.34;4953471;29;20094;-71
2021/10/19 11:49:04;;;;;;;0.30;0.30;;;;;;;14.92;72.41;99462.25;4953263;29;20038;-71
2021/10/19 11:51:30;;;;;;;0.45;0.45;;;;;;;15.04;73.87;99472.41;4953244;29;20042;-71
2021/10/19 11:53:59;;;;;;;0.35;0.35;;;;;;;15.00;73.85;99470.75;4952217;29;20027;-71
2021/10/19 11:56:25;;;;;;;0.30;0.30;;;;;;;14.89;74.01;99463.22;4953490;29;20102;-71
2021/10/19 11:58:53;;;;;;;0.60;0.60;;;;;;;15.08;73.37;99466.19;4953378;29;20163;-71
2021/10/19 12:01:20;;;;;;;0.32;0.32;;;;;;;14.87;74.65;99449.31;4953145;29;20027;-71
2021/10/19 12:03:56;;;;;;;0.32;0.32;;;;;;;15.12;72.42;99464.38;4953405;29;20038;-71
2021/10/19 12:06:27;;;;;;;0.20;0.20;;;;;;;15.25;74.33;99476.22;4953458;29;20416;-71
2021/10/19 12:08:53;;;;;;;0.45;0.45;;;;;;;15.20;72.12;99462.44;4953360;29;20063;-71
2021/10/19 12:11:22;;;;;;;0.20;0.20;;;;;;;15.59;71.44;99446.59;4948252;29;20019;-72
2021/10/19 12:13:58;;;;;;;0.20;0.20;;;;;;;15.76;69.13;99456.59;4944105;29;20146;-71
2021/10/19 12:16:28;;;;;;;0.30;0.30;;;;;;;15.97;69.88;99450.78;4953401;28;20484;-71
2021/10/19 12:18:56;;;;;;;0.10;0.10;;;;;;;15.74;70.69;99459.25;4956762;29;20023;-72
2021/10/19 12:21:21;;;;;;;0.75;0.75;;;;;;;15.66;73.04;99462.09;4956545;29;20023;-71
2021/10/19 12:23:56;;;;;;;0.40;0.40;;;;;;;15.69;71.49;99455.91;4956597;29;20556;-71
2021/10/19 12:26:23;;;;;;;0.43;0.43;;;;;;;15.59;72.55;99444.84;4956496;29;20031;-72
2021/10/19 12:28:51;;;;;;;0.30;0.30;;;;;;;15.78;71.32;99446.97;4956569;29;20102;-72
2021/10/19 12:31:17;;;;;;;0.25;0.25;;;;;;;16.06;70.17;99429.59;4956235;29;20480;-72
2021/10/19 12:33:43;;;;;;;0.45;0.45;;;;;;;15.89;71.43;99437.91;4956125;29;20039;-72
2021/10/19 12:36:11;;;;;;;0.30;0.30;;;;;;;16.04;69.17;99440.97;4956234;29;20086;-71
2021/10/19 12:38:41;;;;;;;0.45;0.45;;;;;;;15.83;73.00;99442.47;4956123;29;20031;-71
2021/10/19 12:41:07;;;;;;;0.32;0.32;;;;;;;15.65;74.05;99439.47;4952717;29;20456;-71
2021/10/19 12:43:33;;;;;;;0.52;0.52;;;;;;;15.66;74.17;99430.75;4944849;29;20035;-70
2021/10/19 12:46:00;;;;;;;3.85;0.82;;;;;;;15.78;73.66;99433.91;4956149;29;20027;-72
2021/10/19 12:48:32;;;;;;;0.60;0.60;;;;;;;15.74;75.51;99429.66;4955909;29;20059;-71
2021/10/19 12:50:59;;;;;;;0.40;0.40;;;;;;;15.77;71.32;99416.53;4955710;29;20114;-71
2021/10/19 12:53:25;;;;;;;0.17;0.17;;;;;;;15.78;70.41;99419.09;4955510;29;20054;-70
2021/10/19 12:55:50;;;;;;;0.60;0.60;;;;;;;15.92;68.54;99416.06;4955920;29;20062;-71
2021/10/19 12:58:15;;;;;;;0.28;0.28;;;;;;;15.90;69.45;99416.09;4955894;29;20451;-70
2021/10/19 13:00:41;;;;;;;0.43;0.43;;;;;;;16.00;69.00;99411.44;4955923;29;20433;-71
2021/10/19 13:03:06;;;;;;;0.55;0.55;;;;;;;16.19;69.15;99404.75;4955476;29;20035;-71
2021/10/19 13:05:31;;;;;;;0.20;0.20;;;;;;;16.35;66.16;99414.78;4954457;29;20037;-71
2021/10/19 13:08:00;;;;;;;0.30;0.30;;;;;;;16.57;65.90;99397.47;4955563;29;20023;-71
2021/10/19 13:10:25;;;;;;;0.20;0.20;;;;;;;17.26;61.96;99399.56;4955332;29;20030;-71
2021/10/19 13:12:50;;;;;;;0.50;0.50;;;;;;;17.51;62.91;99399.56;4946163;29;20122;-72
2021/10/19 13:15:16;;;;;;;4.97;1.20;;;;;;;17.34;64.56;99393.13;4950092;29;20073;-71
2021/10/19 13:17:43;;;;;;;0.20;0.20;;;;;;;17.34;64.07;99402.75;4955823;29;20032;-71
2021/10/19 13:20:09;;;;;;;0.70;0.50;;;;;;;17.23;62.23;99389.19;4955420;29;20045;-71
2021/10/19 13:22:34;;;;;;;0.73;0.68;;;;;;;17.49;61.19;99391.72;4955363;29;20477;-71
2021/10/19 13:25:00;;;;;;;0.52;0.52;;;;;;;17.29;61.16;99386.34;4955691;29;20032;-71
2021/10/19 13:27:25;;;;;;;1.17;0.65;;;;;;;17.23;60.90;99389.19;4955449;29;20038;-71
2021/10/19 13:29:50;;;;;;;0.43;0.43;;;;;;;17.36;60.68;99388.72;4954481;28;20035;-70
2021/10/19 13:32:16;;;;;;;0.88;0.88;;;;;;;17.28;59.96;99390.75;4955173;29;20035;-71
2021/10/19 13:34:41;;;;;;;0.22;0.22;;;;;;;17.48;62.07;99384.78;4955284;29;20511;-71
2021/10/19 13:37:06;;;;;;;0.32;0.32;;;;;;;17.37;59.43;99386.94;4955240;29;20056;-71
2021/10/19 13:39:32;;;;;;;0.38;0.38;;;;;;;17.59;59.68;99387.00;4955346;29;20035;-71
2021/10/19 13:41:57;;;;;;;0.20;0.20;;;;;;;17.15;57.75;99377.22;4948507;29;20019;-71
2021/10/19 13:44:22;;;;;;;0.17;0.17;;;;;;;17.45;58.24;99382.25;4947131;29;20034;-71
2021/10/19 13:46:48;;;;;;;0.20;0.20;;;;;;;17.41;57.98;99383.31;4954992;29;20488;-71
2021/10/19 13:49:13;;;;;;;2.53;0.63;;;;;;;17.30;60.08;99380.19;4955018;29;20027;-71
2021/10/19 13:51:38;;;;;;;0.30;0.30;;;;;;;17.31;59.15;99382.78;4954758;29;20028;-71
2021/10/19 13:54:04;;;;;;;0.45;0.45;;;;;;;17.00;59.68;99383.00;4955144;29;20055;-71
2021/10/19 13:56:30;;;;;;;0.25;0.25;;;;;;;17.10;58.14;99384.38;4953579;29;20034;-72
2021/10/19 13:58:55;;;;;;;0.30;0.30;;;;;;;17.12;59.65;99379.97;4954924;29;20049;-71
2021/10/19 14:01:21;;;;;;;1.20;1.05;;;;;;;17.01;59.77;99382.06;4954421;29;20100;-71
2021/10/19 14:03:46;;;;;;;0.30;0.30;;;;;;;17.04;60.37;99376.75;4954741;29;20035;-71
2021/10/19 14:06:13;;;;;;;0.10;0.10;;;;;;;16.99;60.73;99377.81;4954562;29;20046;-71
2021/10/19 14:08:39;;;;;;;0.38;0.38;;;;;;;16.84;61.06;99376.56;4954828;29;20078;-71
2021/10/19 14:11:06;;;;;;;0.90;0.85;;;;;;;16.99;61.27;99376.06;4951560;29;20110;-72
2021/10/19 14:13:31;;;;;;;1.13;0.65;;;;;;;16.92;60.62;99364.06;4943168;29;20028;-71
2021/10/19 14:15:57;;;;;;;0.20;0.20;;;;;;;17.05;59.71;99370.59;4954435;29;20482;-71
2021/10/19 14:18:23;;;;;;;2.22;1.73;;;;;;;16.91;61.49;99364.97;4954471;29;20391;-71
2021/10/19 14:20:48;;;;;;;0.65;0.65;;;;;;;16.94;61.69;99377.97;4954412;29;20058;-71
2021/10/19 14:23:13;;;;;;;2.25;0.57;;;;;;;16.82;61.65;99367.91;4954257;29;20558;-70
2021/10/19 14:25:39;;;;;;;0.32;0.32;;;;;;;16.75;60.74;99371.66;4954390;29;20481;-70
2021/10/19 14:28:06;;;;;;;0.65;0.65;;;;;;;16.61;61.83;99372.94;4954615;29;20055;-70
2021/10/19 14:30:32;;;;;;;0.30;0.30;;;;;;;16.49;60.93;99362.88;4954002;29;20027;-70
2021/10/19 14:32:59;;;;;;;0.20;0.20;;;;;;;16.45;62.04;99363.88;4954144;29;20019;-72
2021/10/19 14:35:24;;;;;;;2.05;1.00;;;;;;;16.55;61.79;99360.06;4954187;29;20433;-70
2021/10/19 14:37:49;;;;;;;0.17;0.17;;;;;;;16.44;62.23;99356.94;4954382;29;20027;-70
2021/10/19 14:40:16;;;;;;;0.30;0.30;;;;;;;16.49;62.73;99365.50;4954047;28;20035;-71
2021/10/19 14:42:41;;;;;;;2.80;0.47;;;;;;;16.39;64.58;99356.22;4946173;29;20015;-70
2021/10/19 14:45:07;;;;;;;0.65;0.63;;;;;;;16.25;63.79;99355.81;4947616;29;20393;-70
2021/10/19 14:47:32;;;;;;;0.40;0.40;;;;;;;16.26;63.64;99349.69;4954062;29;20553;-71
2021/10/19 14:49:59;;;;;;;0.25;0.25;;;;;;;16.13;64.18;99351.81;4953908;29;20102;-71
2021/10/19 14:52:24;;;;;;;0.52;0.52;;;;;;;16.13;64.36;99341.34;4953807;29;20139;-71
2021/10/19 14:54:49;;;;;;;1.73;0.32;;;;;;;16.17;64.67;99343.84;4954118;29;20213;-71
2021/10/19 14:57:15;;;;;;;0.47;0.47;;;;;;;16.04;64.35;99341.66;4954120;29;20408;-71
2021/10/19 14:59:40;;;;;;;1.98;1.35;;;;;;;16.06;63.67;99345.09;4953742;29;20374;-71
2021/10/19 15:02:06;;;;;;;0.65;0.40;;;;;;;16.08;63.58;99344.13;4953737;29;20019;-71
2021/10/19 15:04:31;;;;;;;0.68;0.68;;;;;;;16.15;64.69;99335.19;4953734;29;20023;-71
2021/10/19 15:06:56;;;;;;;0.28;0.28;;;;;;;16.13;64.57;99344.81;4953770;29;20023;-70
2021/10/19 15:09:24;;;;;;;0.40;0.40;;;;;;;16.19;64.34;99344.63;4953740;29;20504;-70
2021/10/19 15:11:49;;;;;;;1.15;0.43;;;;;;;16.24;64.48;99343.63;4947334;29;20062;-70
2021/10/19 15:14:15;;;;;;;1.65;1.20;;;;;;;16.27;64.66;99333.94;4945661;29;20076;-71
2021/10/19 15:16:40;;;;;;;0.50;0.50;;;;;;;16.17;67.14;99337.75;4953789;29;20023;-71
2021/10/19 15:19:06;;;;;;;0.57;0.57;;;;;;;16.03;67.51;99326.88;4953564;29;20034;-70
2021/10/19 15:21:32;;;;;;;0.63;0.63;;;;;;;16.05;68.25;99323.31;4953469;29;20508;-70
2021/10/19 15:23:57;;;;;;;0.57;0.47;;;;;;;15.86;68.68;99317.81;4953632;29;20039;-71
2021/10/19 15:26:23;;;;;;;1.45;0.77;;;;;;;15.80;68.61;99323.19;4953578;29;20114;-71
2021/10/19 15:28:48;;;;;;;1.55;1.05;;;;;;;15.82;68.32;99312.72;4953503;29;20035;-71
2021/10/19 15:31:14;;;;;;;1.10;1.00;;;;;;;15.83;69.76;99314.44;4953416;29;20545;-71
2021/10/19 15:33:39;;;;;;;0.40;0.40;;;;;;;15.83;69.27;99317.03;4953583;29;20023;-71
2021/10/19 15:36:07;;;;;;;0.35;0.35;;;;;;;15.75;69.45;99308.56;4953447;29;20023;-71
2021/10/19 15:38:33;;;;;;;0.50;0.50;;;;;;;15.70;69.02;99300.00;4953549;29;20046;-71
2021/10/19 15:40:58;;;;;;;0.30;0.30;;;;;;;15.65;68.84;99308.84;4951505;28;20035;-70
2021/10/19 15:43:24;;;;;;;1.35;0.88;;;;;;;15.59;69.32;99306.38;4942123;29;20028;-71
2021/10/19 15:45:49;;;;;;;0.50;0.50;;;;;;;15.64;68.34;99301.91;4952598;29;20023;-70
2021/10/19 15:48:14;;;;;;;0.35;0.35;;;;;;;15.61;68.90;99312.41;4953570;29;20500;-71
2021/10/19 15:50:40;;;;;;;0.10;0.10;;;;;;;15.58;69.44;99302.06;4952986;29;20065;-71